Time;durP1;ratioP1;P1;durP2;ratioP2;P2;SDS_P1;SDS_P2;PMS_P1;PMS_P2;Temp;Humidity;BMP_temperature;BMP_pressure;BME280_temperature;BME280_humidity;BME280_pressure;Samples;Min_cycle;Max_cycle;Signal;HPM_P1;HPM_P2
2022/07/28 00:01:37;;;;;;;7.60;6.13;;;;;;;20.10;63.96;99163.72;5149927;27;20055;-70
2022/07/28 00:04:05;;;;;;;6.72;5.05;;;;;;;20.06;63.91;99165.00;5149174;27;20043;-69
2022/07/28 00:06:33;;;;;;;4.80;4.30;;;;;;;20.19;63.99;99168.19;5149882;27;20051;-69
2022/07/28 00:09:02;;;;;;;6.30;4.32;;;;;;;20.08;63.93;99176.47;5150331;27;20345;-69
2022/07/28 00:11:29;;;;;;;6.60;5.10;;;;;;;19.98;64.45;99164.91;5150031;27;20039;-69
2022/07/28 00:13:56;;;;;;;4.90;4.32;;;;;;;20.04;63.62;99150.84;5149429;27;20055;-70
2022/07/28 00:16:24;;;;;;;6.32;4.75;;;;;;;20.23;62.80;99173.31;5149462;27;20062;-69
2022/07/28 00:18:51;;;;;;;9.35;4.60;;;;;;;20.23;62.80;99174.16;5149636;27;20058;-70
2022/07/28 00:21:18;;;;;;;4.95;4.38;;;;;;;20.26;62.47;99167.63;5149771;27;20108;-70
2022/07/28 00:23:47;;;;;;;11.88;4.88;;;;;;;20.21;62.71;99164.50;5149648;27;20228;-69
2022/07/28 00:26:14;;;;;;;6.22;5.50;;;;;;;20.18;62.38;99165.66;5149641;27;20083;-70
2022/07/28 00:28:41;;;;;;;5.85;4.93;;;;;;;19.50;62.44;99058.41;5149605;27;20112;-70
2022/07/28 00:31:08;;;;;;;6.05;5.40;;;;;;;19.65;62.87;99088.31;5149519;27;20241;-70
2022/07/28 00:33:35;;;;;;;6.47;5.28;;;;;;;20.05;62.80;99155.25;5149427;27;20051;-69
2022/07/28 00:36:03;;;;;;;5.80;5.20;;;;;;;20.02;62.63;99152.00;5149349;27;20057;-69
2022/07/28 00:38:31;;;;;;;6.28;5.43;;;;;;;19.99;62.58;99146.94;5149280;27;20058;-69
2022/07/28 00:41:11;;;;;;;5.82;4.90;;;;;;;19.93;62.86;99151.06;5149222;27;20171;-69
2022/07/28 00:43:39;;;;;;;6.15;4.75;;;;;;;19.89;63.01;99144.28;5149203;27;20078;-70
2022/07/28 00:46:07;;;;;;;17.17;14.95;;;;;;;19.84;63.52;99144.72;5149030;27;20456;-70
2022/07/28 00:48:36;;;;;;;17.63;15.60;;;;;;;19.76;63.99;99149.97;5149123;27;20177;-71
2022/07/28 00:51:04;;;;;;;9.80;8.05;;;;;;;19.82;63.33;99145.88;5149128;27;20084;-70
2022/07/28 00:53:31;;;;;;;11.35;9.40;;;;;;;19.78;63.59;99145.28;5148949;27;20055;-70
2022/07/28 00:56:00;;;;;;;8.70;7.80;;;;;;;19.75;63.72;99147.44;5149083;27;20167;-70
2022/07/28 00:58:27;;;;;;;6.90;5.47;;;;;;;19.78;63.24;99133.69;5149196;27;20084;-70
2022/07/28 01:00:55;;;;;;;7.03;5.65;;;;;;;19.64;63.50;99121.56;5148783;27;20055;-69
2022/07/28 01:03:23;;;;;;;5.68;4.50;;;;;;;19.78;63.57;99136.38;5148797;27;20103;-69
2022/07/28 01:06:00;;;;;;;5.53;4.50;;;;;;;19.77;63.44;99143.59;5149334;27;20252;-70
2022/07/28 01:08:33;;;;;;;6.32;4.43;;;;;;;19.50;63.04;99098.72;5148840;27;20088;-70
2022/07/28 01:11:08;;;;;;;4.72;4.22;;;;;;;19.72;63.32;99142.34;5148861;27;20096;-70
2022/07/28 01:13:42;;;;;;;5.72;4.40;;;;;;;19.26;63.11;99073.31;5148475;27;20066;-70
2022/07/28 01:16:10;;;;;;;7.45;5.15;;;;;;;19.67;63.36;99136.56;5148093;27;20257;-70
2022/07/28 01:18:43;;;;;;;8.35;7.00;;;;;;;19.53;63.07;99127.97;5148616;27;20080;-70
2022/07/28 01:21:13;;;;;;;6.80;5.88;;;;;;;19.61;63.51;99135.31;5148516;27;20051;-70
2022/07/28 01:23:54;;;;;;;7.57;6.82;;;;;;;19.62;63.58;99134.31;5148165;27;20099;-69
2022/07/28 01:26:43;;;;;;;7.68;6.03;;;;;;;19.46;64.06;99132.25;5148293;27;20051;-70
2022/07/28 01:29:23;;;;;;;6.15;5.40;;;;;;;19.42;64.12;99138.91;5148224;27;20230;-70
2022/07/28 01:31:59;;;;;;;5.38;4.50;;;;;;;19.48;63.97;99143.69;5148347;27;20035;-69
2022/07/28 01:34:32;;;;;;;5.65;4.90;;;;;;;19.43;63.96;99145.13;5148149;27;20062;-70
2022/07/28 01:37:04;;;;;;;6.10;4.97;;;;;;;18.84;64.01;99050.38;5147542;27;20057;-70
2022/07/28 01:39:35;;;;;;;5.35;4.38;;;;;;;19.41;63.82;99145.28;5148017;27;20051;-69
2022/07/28 01:42:04;;;;;;;4.82;4.30;;;;;;;19.28;63.61;99128.59;5148011;27;20069;-70
2022/07/28 01:44:36;;;;;;;4.88;4.03;;;;;;;19.38;63.52;99142.00;5147832;27;20057;-70
2022/07/28 01:47:08;;;;;;;5.72;4.40;;;;;;;19.12;63.62;99099.66;5147561;27;20092;-69
2022/07/28 01:49:37;;;;;;;5.05;3.80;;;;;;;19.41;63.37;99147.13;5147549;27;20051;-69
2022/07/28 12:45:10;;;;;;;4.70;3.63;;;;;;;25.96;37.63;98917.09;5144720;27;20390;-68
2022/07/28 12:47:39;;;;;;;5.78;3.70;;;;;;;26.71;39.08;99011.69;5144122;27;20233;-69
2022/07/28 12:50:12;;;;;;;4.75;3.97;;;;;;;26.80;37.61;99013.22;5143974;27;20085;-69
2022/07/28 12:52:41;;;;;;;4.28;3.42;;;;;;;26.54;37.03;98962.16;5143835;27;20135;-70
2022/07/28 12:55:23;;;;;;;4.80;3.42;;;;;;;26.95;35.65;99002.25;5142943;27;20051;-70
2022/07/28 12:57:51;;;;;;;6.68;3.60;;;;;;;27.11;38.44;99001.94;5143204;28;20058;-69
2022/07/28 13:00:23;;;;;;;3.78;3.20;;;;;;;26.78;37.51;98926.44;5143725;27;20063;-69
2022/07/28 13:02:53;;;;;;;6.45;3.10;;;;;;;27.23;37.37;98996.81;5143699;27;20081;-70
2022/07/28 13:08:16;;;;;;;4.97;3.30;;;;;;;27.49;36.42;98984.19;5142960;28;20055;-70
2022/07/28 13:10:47;;;;;;;5.57;3.10;;;;;;;27.49;34.50;98984.19;5143151;28;20052;-69
2022/07/28 13:13:14;;;;;;;4.38;3.28;;;;;;;27.59;35.43;98975.66;5143869;27;20307;-70
2022/07/28 13:15:43;;;;;;;4.53;3.10;;;;;;;27.48;35.73;98958.03;5143255;27;20059;-69
2022/07/28 13:18:11;;;;;;;4.55;3.25;;;;;;;27.62;38.29;98945.34;5143050;27;20055;-70
2022/07/28 13:20:48;;;;;;;4.95;3.13;;;;;;;27.63;35.68;98949.75;5143287;27;20063;-71
2022/07/28 13:23:15;;;;;;;4.72;3.08;;;;;;;27.63;36.89;98959.78;5143122;27;20051;-70
2022/07/28 13:25:43;;;;;;;5.53;3.80;;;;;;;27.68;36.85;98949.97;5142851;27;20055;-70
2022/07/28 13:28:24;;;;;;;4.95;3.33;;;;;;;27.47;34.70;98941.91;5142891;27;20077;-70
2022/07/28 13:30:53;;;;;;;4.30;3.63;;;;;;;27.30;37.03;98903.31;5143300;27;20051;-70
2022/07/28 13:33:21;;;;;;;8.48;3.22;;;;;;;27.70;38.14;98953.31;5143228;28;20039;-69
2022/07/28 13:35:49;;;;;;;4.72;3.45;;;;;;;27.78;37.10;98950.41;5142719;27;20081;-69
2022/07/28 13:38:17;;;;;;;5.68;3.67;;;;;;;27.25;36.78;98877.75;5141831;28;20101;-70
2022/07/28 13:40:44;;;;;;;4.60;3.30;;;;;;;27.64;36.70;98947.84;5142681;27;20063;-70
2022/07/28 13:43:11;;;;;;;3.85;2.88;;;;;;;27.58;37.52;98949.47;5142560;27;20059;-69
2022/07/28 13:45:39;;;;;;;6.18;3.10;;;;;;;27.53;36.99;98951.97;5142817;27;20323;-70
2022/07/28 13:48:07;;;;;;;4.00;3.58;;;;;;;27.45;36.82;98931.22;5142934;28;20059;-69
2022/07/28 13:50:35;;;;;;;4.32;3.33;;;;;;;27.51;37.50;98948.59;5143242;27;20311;-70
2022/07/28 13:53:02;;;;;;;4.82;3.25;;;;;;;27.51;37.26;98937.72;5143030;27;20058;-69
2022/07/28 13:55:29;;;;;;;3.90;3.30;;;;;;;27.59;36.73;98923.09;5134378;27;20052;-70
2022/07/28 13:57:56;;;;;;;12.95;3.50;;;;;;;27.39;37.47;98883.03;5129244;28;20051;-70
2022/07/28 14:00:24;;;;;;;4.88;3.28;;;;;;;27.69;35.53;98931.75;5128730;28;20275;-70
2022/07/28 14:02:51;;;;;;;5.93;3.10;;;;;;;27.64;37.24;98928.81;5128644;28;20101;-70
2022/07/28 14:05:20;;;;;;;4.63;3.00;;;;;;;27.74;36.21;98929.25;5128469;28;20070;-71
2022/07/28 14:07:48;;;;;;;4.40;3.50;;;;;;;27.73;36.42;98909.34;5128884;28;20056;-70
2022/07/28 14:10:15;;;;;;;4.93;3.25;;;;;;;27.73;35.23;98933.03;5128735;28;20112;-71
2022/07/28 14:12:42;;;;;;;3.63;2.50;;;;;;;27.47;36.48;98898.34;5128393;28;20081;-71
2022/07/28 14:15:10;;;;;;;4.28;2.80;;;;;;;27.69;36.52;98920.84;5128334;28;20077;-70
2022/07/28 14:17:38;;;;;;;5.30;3.17;;;;;;;27.72;34.41;98924.00;5128405;28;20104;-70
2022/07/28 14:20:07;;;;;;;3.65;2.85;;;;;;;27.65;36.78;98922.31;5128294;28;20304;-70
2022/07/28 14:22:37;;;;;;;4.68;2.95;;;;;;;27.62;36.67;98911.84;5127839;28;20235;-69
2022/07/28 14:25:04;;;;;;;4.20;2.78;;;;;;;27.63;36.78;98914.34;5127951;28;20101;-70
2022/07/28 14:27:32;;;;;;;3.45;2.72;;;;;;;27.68;36.31;98913.75;5128192;28;20055;-70
2022/07/28 14:29:59;;;;;;;3.45;2.92;;;;;;;27.65;35.97;98916.88;5128194;28;20036;-70
2022/07/28 14:32:27;;;;;;;4.18;2.95;;;;;;;27.54;36.77;98904.66;5128238;28;20059;-69
2022/07/28 14:34:55;;;;;;;4.45;2.97;;;;;;;27.64;36.10;98948.69;5128491;28;20047;-70
2022/07/28 14:37:22;;;;;;;5.80;3.22;;;;;;;27.68;36.40;98914.56;5127911;28;20055;-69
2022/07/28 14:39:50;;;;;;;4.45;2.85;;;;;;;27.61;36.39;98905.56;5127863;28;20384;-69
2022/07/28 14:42:17;;;;;;;3.95;3.38;;;;;;;27.70;35.93;98909.75;5127776;28;20112;-69
2022/07/28 14:44:45;;;;;;;4.22;3.47;;;;;;;27.67;36.18;98914.78;5127360;28;20063;-70
2022/07/28 14:47:12;;;;;;;3.65;2.95;;;;;;;27.74;36.26;98905.59;5127891;28;20055;-69
2022/07/28 14:49:39;;;;;;;4.75;3.10;;;;;;;27.71;35.69;98902.44;5127413;28;20115;-70
2022/07/28 14:52:06;;;;;;;6.40;4.28;;;;;;;27.70;35.74;98895.31;5127401;28;20055;-69
2022/07/28 14:54:33;;;;;;;7.05;5.05;;;;;;;27.57;36.01;98879.75;5127785;28;20055;-69
2022/07/28 14:57:02;;;;;;;5.45;4.70;;;;;;;27.79;36.35;98897.66;5127459;28;20104;-70
2022/07/28 14:59:29;;;;;;;5.13;4.13;;;;;;;27.87;36.39;98899.38;5127636;28;20108;-70
2022/07/28 15:01:57;;;;;;;5.57;4.32;;;;;;;27.92;36.48;98891.41;5127352;28;20108;-71
2022/07/28 15:04:25;;;;;;;5.63;3.45;;;;;;;27.94;36.67;98892.03;5126868;28;20104;-70
2022/07/28 15:06:52;;;;;;;4.63;3.30;;;;;;;27.88;36.39;98897.47;5126067;28;20241;-70
2022/07/28 15:09:19;;;;;;;5.07;3.42;;;;;;;27.79;36.18;98892.19;5127298;28;20334;-71
2022/07/28 15:11:47;;;;;;;5.18;3.33;;;;;;;27.77;36.37;98888.84;5127317;28;20063;-70
2022/07/28 15:14:16;;;;;;;5.45;3.42;;;;;;;27.84;36.33;98891.59;5127321;28;20109;-71
2022/07/28 15:16:43;;;;;;;4.60;3.50;;;;;;;27.76;36.69;98895.34;5126859;28;20081;-69
2022/07/28 15:19:10;;;;;;;4.63;3.80;;;;;;;27.79;35.76;98903.09;5126729;28;20055;-69
2022/07/28 15:21:39;;;;;;;7.07;4.10;;;;;;;27.81;36.48;98881.09;5126807;28;20052;-71
2022/07/28 15:24:08;;;;;;;4.65;3.78;;;;;;;27.59;36.81;98855.06;5126859;27;20055;-71
2022/07/28 15:26:35;;;;;;;5.28;3.22;;;;;;;27.88;37.11;98879.25;5126445;28;20269;-70
2022/07/28 15:29:03;;;;;;;6.50;3.97;;;;;;;27.42;36.51;98820.06;5126471;28;20055;-71
2022/07/28 15:31:32;;;;;;;4.85;3.40;;;;;;;27.92;36.39;98887.84;5126464;28;20047;-70
2022/07/28 15:33:59;;;;;;;6.30;3.50;;;;;;;27.46;37.12;98823.19;5126291;28;20052;-70
2022/07/28 15:36:26;;;;;;;5.20;3.40;;;;;;;27.72;36.78;98866.84;5126778;28;20100;-70
2022/07/28 15:38:54;;;;;;;4.85;3.88;;;;;;;27.84;36.84;98882.59;5126513;28;20047;-70
2022/07/28 15:41:21;;;;;;;4.75;3.40;;;;;;;27.84;36.68;98882.59;5126417;28;20051;-69
2022/07/28 15:43:48;;;;;;;7.10;4.03;;;;;;;27.86;36.92;98877.78;5126520;28;20112;-70
2022/07/28 15:46:16;;;;;;;5.00;3.40;;;;;;;27.85;36.36;98881.56;5126239;28;20056;-70
2022/07/28 15:48:45;;;;;;;4.28;3.17;;;;;;;27.33;35.79;98802.25;5126840;28;20057;-69
2022/07/28 15:51:13;;;;;;;4.13;3.50;;;;;;;27.71;36.46;98876.06;5127441;28;20039;-70
2022/07/28 15:53:41;;;;;;;5.95;4.03;;;;;;;27.73;35.68;98868.53;5127494;28;20303;-69
2022/07/28 15:56:08;;;;;;;4.78;4.00;;;;;;;27.81;36.45;98867.50;5125678;28;20055;-70
2022/07/28 15:58:36;;;;;;;5.05;3.58;;;;;;;27.75;36.26;98868.31;5126460;28;20051;-69
2022/07/28 16:01:04;;;;;;;6.72;4.05;;;;;;;27.59;36.46;98844.16;5126020;28;20047;-70
2022/07/28 16:03:31;;;;;;;5.97;4.10;;;;;;;27.74;36.61;98845.69;5125976;28;20047;-71
2022/07/28 16:06:00;;;;;;;5.15;3.50;;;;;;;27.76;35.62;98850.94;5125775;28;20141;-71
2022/07/28 16:08:27;;;;;;;7.95;3.83;;;;;;;27.01;37.01;98754.00;5126375;28;20076;-71
2022/07/28 16:10:55;;;;;;;7.00;3.67;;;;;;;27.74;36.69;98855.75;5126329;28;20112;-70
2022/07/28 16:13:23;;;;;;;4.43;3.60;;;;;;;27.58;36.66;98827.00;5125677;28;20096;-71
2022/07/28 16:15:51;;;;;;;7.88;4.53;;;;;;;27.72;36.75;98853.22;5125624;28;20311;-70
2022/07/28 16:18:18;;;;;;;5.05;3.90;;;;;;;27.63;36.29;98854.47;5125770;28;20081;-71
2022/07/28 16:20:46;;;;;;;4.47;3.38;;;;;;;27.63;35.63;98850.91;5126009;28;20056;-69
2022/07/28 16:23:14;;;;;;;3.92;3.22;;;;;;;27.60;35.93;98854.00;5126184;28;20056;-70
2022/07/28 16:25:42;;;;;;;5.50;3.42;;;;;;;27.60;35.40;98857.56;5125885;28;20100;-71
2022/07/28 16:28:09;;;;;;;6.10;3.00;;;;;;;26.84;36.11;98719.00;5126025;28;20060;-70
2022/07/28 16:30:36;;;;;;;4.28;3.40;;;;;;;26.92;35.81;98741.63;5125682;28;20307;-70
2022/07/28 16:33:04;;;;;;;6.07;3.85;;;;;;;27.56;35.73;98837.25;5125768;28;20124;-70
2022/07/28 16:35:32;;;;;;;5.07;4.57;;;;;;;27.56;35.60;98848.13;5125495;28;20372;-70
2022/07/28 16:38:00;;;;;;;4.97;3.42;;;;;;;27.44;34.58;98830.72;5125340;28;20050;-70
2022/07/28 16:40:30;;;;;;;3.15;2.60;;;;;;;27.40;35.77;98830.31;5125649;28;20100;-70
2022/07/28 16:42:58;;;;;;;4.07;3.03;;;;;;;27.49;35.49;98833.69;5124909;28;20048;-69
2022/07/28 16:45:26;;;;;;;4.15;3.35;;;;;;;27.51;35.62;98837.03;5125698;28;20304;-70
2022/07/28 16:47:53;;;;;;;3.85;3.28;;;;;;;27.45;35.56;98840.56;5125072;28;20052;-70
2022/07/28 16:50:22;;;;;;;4.07;2.55;;;;;;;27.41;34.90;98836.59;5125446;28;20100;-70
2022/07/28 16:52:50;;;;;;;5.28;4.40;;;;;;;27.41;35.48;98842.88;5125465;28;20057;-70
2022/07/28 16:55:18;;;;;;;3.72;2.92;;;;;;;27.30;35.51;98820.84;5125473;28;20035;-70
2022/07/28 16:57:46;;;;;;;4.68;3.30;;;;;;;27.40;34.50;98834.91;5125216;28;20081;-71
2022/07/28 17:00:15;;;;;;;4.28;3.13;;;;;;;27.39;34.89;98841.41;5125650;28;20060;-72
2022/07/28 17:02:42;;;;;;;5.10;2.72;;;;;;;27.35;35.35;98829.25;5124329;28;20043;-71
2022/07/28 17:05:10;;;;;;;4.25;3.15;;;;;;;27.13;35.20;98802.16;5125253;28;20295;-71
2022/07/28 17:07:40;;;;;;;4.35;3.53;;;;;;;27.19;35.39;98823.09;5125249;28;20063;-71
2022/07/28 17:10:09;;;;;;;3.90;2.97;;;;;;;27.27;35.07;98843.88;5125627;28;20063;-70
2022/07/28 17:12:37;;;;;;;4.28;3.47;;;;;;;27.25;35.26;98839.66;5125280;28;20055;-71
2022/07/28 17:15:06;;;;;;;5.25;3.33;;;;;;;27.23;34.09;98848.03;5125356;28;20302;-71
2022/07/28 17:17:34;;;;;;;5.03;3.22;;;;;;;27.21;34.79;98849.25;5125095;28;20323;-70
2022/07/28 17:20:02;;;;;;;3.63;2.85;;;;;;;27.23;35.12;98848.03;5125012;28;20361;-70
2022/07/28 17:22:29;;;;;;;3.65;2.95;;;;;;;26.48;35.34;98735.56;5124830;28;20140;-70
2022/07/28 17:24:56;;;;;;;4.75;3.33;;;;;;;27.21;35.29;98851.97;5124566;28;20249;-71
2022/07/28 17:27:24;;;;;;;5.45;4.85;;;;;;;27.15;34.98;98840.03;5125110;28;20234;-70
2022/07/28 17:29:51;;;;;;;5.30;4.28;;;;;;;26.69;35.40;98786.28;5125811;28;20381;-71
2022/07/28 17:32:20;;;;;;;4.05;3.17;;;;;;;26.95;35.10;98815.47;5129032;28;20040;-70
2022/07/28 17:34:47;;;;;;;4.65;3.78;;;;;;;27.16;35.48;98856.13;5128986;28;20108;-71
2022/07/28 17:37:14;;;;;;;5.47;3.83;;;;;;;27.15;35.00;98853.63;5128833;28;20057;-70
2022/07/28 17:39:42;;;;;;;4.30;3.35;;;;;;;27.12;35.32;98848.59;5128675;28;20056;-71
2022/07/28 17:42:09;;;;;;;4.15;3.35;;;;;;;27.01;35.17;98838.28;5128893;28;20063;-71
2022/07/28 17:44:37;;;;;;;6.05;3.60;;;;;;;26.93;35.56;98827.59;5127235;28;20128;-70
2022/07/28 17:47:05;;;;;;;4.50;3.55;;;;;;;26.83;35.54;98812.47;5128738;28;20104;-71
2022/07/28 17:49:36;;;;;;;6.57;4.70;;;;;;;27.05;35.54;98848.56;5128457;28;20059;-70
2022/07/28 17:52:04;;;;;;;5.32;4.50;;;;;;;26.96;35.77;98833.47;5128840;28;20048;-71
2022/07/28 17:55:33;;;;;;;5.70;3.92;;;;;;;27.02;35.79;98846.25;5127966;28;20345;-72
2022/07/28 17:57:20;;;;;;;5.22;4.13;;;;;;;26.91;35.92;98837.81;5128011;28;20311;-70
2022/07/28 17:59:47;;;;;;;5.30;4.03;;;;;;;26.93;35.81;98852.91;5128520;28;20104;-72
2022/07/28 18:02:15;;;;;;;4.63;3.47;;;;;;;26.88;35.93;98847.22;5128646;28;20055;-70
2022/07/28 18:04:43;;;;;;;5.68;4.72;;;;;;;26.76;36.24;98857.81;5128490;27;20188;-69
2022/07/28 18:07:11;;;;;;;7.68;5.45;;;;;;;26.68;36.52;98835.41;5128737;28;20047;-69
2022/07/28 18:09:40;;;;;;;5.80;5.07;;;;;;;26.83;36.77;98855.97;5128537;28;20060;-69
2022/07/28 18:12:07;;;;;;;6.78;4.68;;;;;;;26.77;36.99;98859.50;5128372;28;20299;-70
2022/07/28 18:14:35;;;;;;;5.88;4.72;;;;;;;26.83;37.27;98858.69;5128176;27;20104;-69
2022/07/28 18:17:03;;;;;;;6.15;5.13;;;;;;;26.82;37.53;98853.47;5128213;28;20112;-70
2022/07/28 18:19:30;;;;;;;6.78;4.95;;;;;;;26.79;37.51;98867.47;5127983;28;20113;-70
2022/07/28 18:21:59;;;;;;;4.88;3.83;;;;;;;26.81;36.97;98873.53;5128367;27;20059;-70
2022/07/28 18:24:26;;;;;;;6.63;4.55;;;;;;;26.80;37.79;98871.84;5128254;28;20316;-71
2022/07/28 18:26:54;;;;;;;6.45;4.50;;;;;;;26.79;37.64;98871.00;5127553;28;20051;-71
2022/07/28 18:29:23;;;;;;;5.43;4.72;;;;;;;26.73;37.79;98869.09;5128103;28;20055;-70
2022/07/28 18:31:51;;;;;;;5.57;4.95;;;;;;;26.69;37.94;98872.41;5127579;28;20205;-71
2022/07/28 18:34:18;;;;;;;6.95;5.93;;;;;;;26.42;38.01;98819.75;5127132;28;20051;-70
2022/07/28 18:36:45;;;;;;;5.45;4.68;;;;;;;26.68;38.25;98879.72;5127723;28;20055;-70
2022/07/28 18:39:14;;;;;;;5.70;3.83;;;;;;;26.65;38.41;98884.72;5128152;27;20241;-70
2022/07/28 18:41:42;;;;;;;4.80;3.80;;;;;;;26.63;38.40;98874.06;5127293;28;20059;-70
2022/07/28 18:44:09;;;;;;;4.82;3.67;;;;;;;26.61;38.72;98876.13;5127737;28;20056;-70
2022/07/28 18:46:37;;;;;;;4.75;3.97;;;;;;;26.47;38.65;98864.28;5127901;28;20055;-71
2022/07/28 18:49:04;;;;;;;5.50;3.88;;;;;;;26.59;38.99;98885.47;5127847;28;20040;-70
2022/07/28 18:51:31;;;;;;;6.82;4.20;;;;;;;26.58;39.08;98883.81;5127934;28;20067;-71
2022/07/28 18:53:59;;;;;;;6.10;3.75;;;;;;;26.53;39.45;98882.53;5127321;28;20104;-70
2022/07/28 18:56:27;;;;;;;5.45;4.00;;;;;;;26.51;39.26;98887.31;5127459;28;20052;-70
2022/07/28 18:58:55;;;;;;;6.00;4.15;;;;;;;26.35;39.47;98863.16;5127786;28;20081;-71
2022/07/28 19:01:23;;;;;;;8.32;5.85;;;;;;;26.43;39.28;98889.34;5127231;28;20366;-71
2022/07/28 19:03:50;;;;;;;6.88;6.18;;;;;;;26.43;39.95;98886.63;5126371;28;20047;-71
2022/07/28 19:06:19;;;;;;;6.40;4.95;;;;;;;26.40;39.85;98885.13;5127484;28;20059;-71
2022/07/28 19:08:46;;;;;;;8.30;6.40;;;;;;;26.40;39.90;98895.16;5127553;28;20097;-71
2022/07/28 19:11:13;;;;;;;9.95;8.68;;;;;;;26.37;40.31;98901.00;5127443;28;20063;-68
2022/07/28 19:13:42;;;;;;;8.25;7.07;;;;;;;26.02;40.10;98835.75;5127284;28;20077;-69
2022/07/28 19:16:09;;;;;;;6.97;6.28;;;;;;;26.34;40.38;98895.97;5127039;28;20066;-70
2022/07/28 19:18:37;;;;;;;6.75;5.55;;;;;;;26.16;40.55;98869.28;5127147;28;20315;-70
2022/07/28 19:21:04;;;;;;;7.88;6.10;;;;;;;26.32;40.35;98900.75;5127178;28;20081;-69
2022/07/28 19:23:31;;;;;;;6.65;5.95;;;;;;;26.02;40.44;98865.59;5127210;28;20340;-69
2022/07/28 19:26:00;;;;;;;6.78;5.80;;;;;;;26.27;41.04;98905.94;5126994;28;20056;-69
2022/07/28 19:28:28;;;;;;;6.55;4.95;;;;;;;25.77;40.73;98842.56;5127081;27;20197;-70
2022/07/28 19:30:58;;;;;;;6.63;4.88;;;;;;;26.10;40.46;98897.22;5126827;28;20051;-69
2022/07/28 19:33:26;;;;;;;5.90;4.88;;;;;;;26.17;40.52;98917.13;5126949;27;20056;-69
2022/07/28 19:35:53;;;;;;;5.95;4.45;;;;;;;26.08;40.40;98896.56;5127039;28;20059;-70
2022/07/28 19:38:21;;;;;;;6.35;4.85;;;;;;;26.15;40.69;98916.47;5126995;28;20081;-70
2022/07/28 19:40:48;;;;;;;7.18;4.60;;;;;;;26.14;40.91;98912.09;5126369;28;20277;-70
2022/07/28 19:43:15;;;;;;;8.35;7.43;;;;;;;26.11;40.85;98926.88;5126533;28;20059;-70
2022/07/28 19:45:43;;;;;;;7.10;6.38;;;;;;;26.08;41.27;98919.13;5126705;28;20055;-69
2022/07/28 19:48:12;;;;;;;8.15;6.65;;;;;;;25.95;40.87;98901.84;5126367;28;20142;-69
2022/07/28 19:50:41;;;;;;;6.68;5.95;;;;;;;26.05;41.40;98926.81;5126574;28;20164;-70
2022/07/28 19:53:08;;;;;;;6.82;6.13;;;;;;;26.03;41.05;98918.03;5126106;28;20052;-70
2022/07/28 19:55:36;;;;;;;10.05;5.85;;;;;;;25.89;41.46;98904.28;5126738;28;20085;-71
2022/07/28 19:58:03;;;;;;;6.88;6.07;;;;;;;25.55;41.17;98858.84;5126439;28;20108;-72
2022/07/28 20:00:30;;;;;;;9.23;6.55;;;;;;;25.69;41.23;98873.41;5126595;28;20100;-70
2022/07/28 20:02:58;;;;;;;7.60;6.90;;;;;;;25.83;41.35;98901.50;5126660;28;20250;-71
2022/07/28 20:05:28;;;;;;;8.90;7.63;;;;;;;25.11;41.74;98783.00;5125435;28;20114;-71
2022/07/28 20:07:59;;;;;;;8.00;7.10;;;;;;;25.59;42.13;98876.44;5126317;28;20059;-71
2022/07/28 20:10:26;;;;;;;6.68;5.75;;;;;;;24.72;41.72;98736.44;5126321;28;20052;-70
2022/07/28 20:12:53;;;;;;;8.68;6.53;;;;;;;25.90;41.83;98926.84;5126375;28;20303;-71
2022/07/28 20:15:21;;;;;;;7.88;6.00;;;;;;;25.85;42.14;98929.31;5126182;28;20051;-70
2022/07/28 20:17:48;;;;;;;7.55;6.75;;;;;;;25.80;42.60;98920.91;5126368;27;20307;-71
2022/07/28 20:20:16;;;;;;;10.50;9.43;;;;;;;25.80;42.66;98927.16;5126278;28;20055;-71
2022/07/28 20:22:46;;;;;;;9.02;8.13;;;;;;;25.39;42.55;98864.50;5125968;28;20261;-71
2022/07/28 20:25:14;;;;;;;8.98;8.07;;;;;;;25.80;42.46;98929.03;5126190;28;20051;-70
2022/07/28 20:27:43;;;;;;;13.25;11.98;;;;;;;25.36;42.64;98858.63;5126023;28;20052;-70
2022/07/28 20:30:11;;;;;;;14.63;12.77;;;;;;;25.75;42.69;98935.03;5125841;28;20070;-71
2022/07/28 20:32:40;;;;;;;9.75;8.85;;;;;;;25.75;42.64;98935.03;5126061;28;20051;-72
2022/07/28 20:35:08;;;;;;;8.98;7.85;;;;;;;25.64;42.83;98910.28;5125226;28;20044;-70
2022/07/28 20:37:35;;;;;;;8.98;7.22;;;;;;;25.72;43.16;98942.72;5125896;28;20105;-71
2022/07/28 20:40:06;;;;;;;10.93;6.80;;;;;;;25.73;43.20;98944.41;5126130;28;20058;-70
2022/07/28 20:42:33;;;;;;;8.98;5.80;;;;;;;25.56;43.05;98946.50;5126036;28;20299;-69
2022/07/28 20:45:01;;;;;;;10.60;5.50;;;;;;;25.58;43.23;98955.31;5125409;28;20077;-69
2022/07/28 20:47:31;;;;;;;6.60;4.68;;;;;;;25.54;42.98;98959.44;5125570;28;20109;-69
2022/07/28 20:49:58;;;;;;;7.70;5.22;;;;;;;25.57;42.79;98954.47;5125678;28;20055;-71
2022/07/28 20:52:26;;;;;;;5.68;4.65;;;;;;;25.57;42.68;98951.75;5125810;28;20080;-71
2022/07/28 20:54:54;;;;;;;7.32;6.45;;;;;;;25.53;42.63;98955.03;5124947;28;20085;-71
2022/07/28 20:57:22;;;;;;;6.38;5.20;;;;;;;25.56;42.74;98954.66;5125780;28;20051;-70
2022/07/28 20:59:50;;;;;;;8.75;7.80;;;;;;;25.36;43.07;98938.13;5125419;28;20055;-70
2022/07/28 21:02:18;;;;;;;8.10;7.10;;;;;;;25.36;43.27;98940.00;5125827;28;20108;-68
2022/07/28 21:04:45;;;;;;;7.90;7.10;;;;;;;25.46;43.43;98968.50;5125102;28;20093;-69
2022/07/28 21:07:12;;;;;;;8.18;6.70;;;;;;;25.45;43.30;98964.13;5130037;28;20051;-70
2022/07/28 21:09:39;;;;;;;8.43;6.45;;;;;;;25.48;43.37;98966.44;5130032;27;20044;-70
2022/07/28 21:12:07;;;;;;;8.55;6.90;;;;;;;25.38;43.48;98960.47;5129108;28;20369;-71
2022/07/28 21:14:36;;;;;;;8.50;6.57;;;;;;;25.39;43.79;98964.88;5129793;28;20113;-70
2022/07/28 21:17:03;;;;;;;9.65;7.25;;;;;;;25.19;43.90;98951.00;5129968;27;20054;-68
2022/07/28 21:19:31;;;;;;;11.90;10.10;;;;;;;25.11;44.06;98945.69;5129843;28;20112;-71
2022/07/28 21:21:58;;;;;;;11.63;8.68;;;;;;;25.30;44.16;98974.09;5129825;28;20245;-70
2022/07/28 21:24:25;;;;;;;7.75;6.57;;;;;;;25.02;44.09;98922.41;5129745;28;20056;-71
2022/07/28 21:26:52;;;;;;;6.95;6.28;;;;;;;25.24;44.12;98974.84;5129337;28;20055;-70
2022/07/28 21:29:19;;;;;;;8.75;6.40;;;;;;;24.93;44.23;98928.94;5129632;28;20108;-71
2022/07/28 21:31:49;;;;;;;6.80;6.10;;;;;;;25.27;44.06;98974.47;5129331;28;20168;-70
2022/07/28 21:34:18;;;;;;;7.07;6.28;;;;;;;25.24;44.04;98973.00;5129844;28;20036;-70
2022/07/28 21:36:45;;;;;;;7.57;6.20;;;;;;;25.21;43.89;98978.78;5129588;28;20192;-69
2022/07/28 21:39:12;;;;;;;7.18;5.30;;;;;;;25.12;43.74;98955.50;5129385;28;20059;-69
2022/07/28 21:41:40;;;;;;;7.43;5.60;;;;;;;24.82;43.57;98921.25;5129130;28;20120;-69
2022/07/28 21:44:07;;;;;;;7.03;6.00;;;;;;;24.99;43.90;98955.28;5129037;28;20055;-70
2022/07/28 21:46:37;;;;;;;9.38;7.18;;;;;;;25.08;44.08;98978.59;5129367;28;20316;-70
2022/07/28 21:49:06;;;;;;;8.88;7.85;;;;;;;25.12;43.95;98982.63;5128787;28;20106;-70
2022/07/28 21:51:33;;;;;;;8.23;6.65;;;;;;;25.07;43.85;98979.63;5128925;28;20055;-70
2022/07/28 21:54:00;;;;;;;8.95;6.18;;;;;;;25.05;43.85;98978.97;5128400;28;20043;-70
2022/07/28 21:56:28;;;;;;;6.25;5.00;;;;;;;24.99;43.91;98979.69;5129099;28;20104;-70
2022/07/28 21:58:56;;;;;;;6.65;5.53;;;;;;;24.96;44.12;98999.88;5129002;28;20106;-70
2022/07/28 22:01:23;;;;;;;6.57;5.38;;;;;;;24.75;43.94;98934.72;5129184;28;20212;-70
2022/07/28 22:03:51;;;;;;;6.47;5.50;;;;;;;24.48;43.14;98909.03;5128622;28;20048;-70
2022/07/28 22:06:20;;;;;;;7.20;6.50;;;;;;;24.85;43.60;98984.06;5128427;27;20051;-70
2022/07/28 22:08:49;;;;;;;7.32;6.50;;;;;;;24.83;43.28;98971.72;5128733;28;20085;-70
2022/07/28 22:11:16;;;;;;;7.28;5.53;;;;;;;24.81;42.90;98971.91;5128875;28;20324;-70
2022/07/28 22:13:43;;;;;;;6.43;5.57;;;;;;;24.68;43.25;98977.13;5128978;28;20291;-69
2022/07/28 22:16:11;;;;;;;9.27;8.13;;;;;;;24.53;43.54;98965.38;5127989;28;20116;-70
2022/07/28 22:18:38;;;;;;;7.10;6.18;;;;;;;24.73;43.10;98976.56;5128686;28;20062;-69
2022/07/28 22:21:05;;;;;;;6.47;5.72;;;;;;;24.71;43.05;98984.88;5127491;28;20056;-70
2022/07/28 22:23:34;;;;;;;7.22;6.20;;;;;;;22.09;42.97;98553.38;5128667;28;20063;-70
2022/07/28 22:26:01;;;;;;;5.78;4.95;;;;;;;24.70;42.81;98998.59;5127255;28;20043;-70
2022/07/28 22:28:29;;;;;;;5.25;4.28;;;;;;;24.54;42.68;98976.03;5127927;28;20092;-70
2022/07/28 22:30:56;;;;;;;6.05;4.07;;;;;;;24.55;42.91;98993.13;5128269;27;20058;-70
2022/07/28 22:33:24;;;;;;;6.90;4.95;;;;;;;24.41;43.08;98992.06;5128213;28;20040;-70
2022/07/28 22:35:51;;;;;;;6.75;4.97;;;;;;;24.50;42.87;98982.00;5128138;28;20119;-70